Andover, OH

10:19 AM EDT on April 27, 2015 (GMT -0400)
OHDOT | | Change Station
CLOSE
Current Station
Personal Weather Station
Location: Pierpont, OH
Elevation: 972 ft
Nearby Weather Stations

Elev 972 ft 41.78 °N, 80.57 °W | Updated 26 minutes ago

Overcast
Overcast
37 °F
Feels Like 32 °F
N
7
Wind Variable Wind from NW
Gusts 13.0 mph

Today
High -- | Low -- °F
--% Chance of Precip.
Yesterday
High -- | Low -- °F
Precip. -- in
6:24 AM 8:15 PM
Waxing Gibbous, 65% visible
Pressure 29.91 in
Visibility 7.0 miles
Clouds Overcast 900 ft
Windchill 32 °F
Dew Point 36 °F
Humidity 95%
Rainfall in
Snow Depth Not available.
UV 1 out of 12
Pollen 10.00 out of 12
Air Quality Not available.
Flu Activity Regional
METAR KHZY 271353Z AUTO 32010KT 7SM -RA OVC009 03/02 A2989 RMK AO2 SLP128 P0000 T00280017

More Conditions Fewer Conditions

Pressure 29.91 in
Visibility 7.0 miles
Clouds Overcast 900 ft
Windchill 32 °F
Dew Point 36 °F
Humidity 95%
Rainfall in
Snow Depth Not available.
UV 1 out of 12
Pollen 10.00 out of 12
Air Quality Not available.
Flu Activity Regional
METAR KHZY 271353Z AUTO 32010KT 7SM -RA OVC009 03/02 A2989 RMK AO2 SLP128 P0000 T00280017

More Conditions Fewer Conditions

Nowcast | as of 10:01 am EDT on April 27, 2015

Showers will be ending from the north this morning.

×

10-Day Weather Forecast

Almanac

Astronomy

Apr. 27, 2015 Rise Set
Actual Time
Civil Twilight
Nautical Twilight
Astronomical Twilight
Moon
Length of Visible Light
Length of Day
Tomorrow will be .
, % of the Moon is Illuminated

Today's Extremes

State Highs State Lows

Community

WunderPhotos

Upload Photos

1,817,314 photos uploaded!

WunderBlogs® & News

Nearby

Air Quality

  Air Quality AQ Index Pollutant
Not available.

Snow Depth

Station Depth Elevation

Earthquake Activity

City Distance Mag. Time & Date
Minimum magnitude displayed is 2.5.

Coastal Water Temperatures

Place Temperature

Stations

Nearby Weather Stations

Station Location Temp. Windchill Dew Point Humidity Wind Precip. Elev Updated Type